Time;durP1;ratioP1;P1;durP2;ratioP2;P2;SDS_P1;SDS_P2;PMS_P1;PMS_P2;Temp;Humidity;BMP_temperature;BMP_pressure;BME280_temperature;BME280_humidity;BME280_pressure;Samples;Min_cycle;Max_cycle;Signal;HPM_P1;HPM_P2
2022/07/28 00:02:18;;;;;;;5.32;2.05;;;13.20;99.90;;;;;;5002365;28;20046;-57
2022/07/28 00:04:43;;;;;;;4.57;2.10;;;12.80;99.90;;;;;;5002802;28;20034;-58
2022/07/28 00:07:09;;;;;;;6.60;2.25;;;13.00;99.90;;;;;;5009373;28;20049;-58
2022/07/28 00:09:35;;;;;;;5.85;2.28;;;12.90;99.90;;;;;;5005624;28;20049;-58
2022/07/28 00:12:00;;;;;;;6.22;2.33;;;12.70;99.90;;;;;;5001516;28;20077;-57
2022/07/28 00:14:26;;;;;;;5.53;2.50;;;12.80;99.90;;;;;;5001512;28;20053;-58
2022/07/28 00:16:52;;;;;;;5.43;2.10;;;12.70;99.90;;;;;;5001898;28;20121;-57
2022/07/28 00:19:19;;;;;;;7.40;2.35;;;12.70;99.90;;;;;;5002052;28;20568;-58
2022/07/28 00:21:45;;;;;;;4.50;2.38;;;12.60;99.90;;;;;;5002536;28;20546;-57
2022/07/28 00:24:11;;;;;;;4.75;2.25;;;12.50;99.90;;;;;;5002276;28;20050;-58
2022/07/28 00:26:37;;;;;;;5.68;2.70;;;12.40;99.90;;;;;;5000813;28;20053;-58
2022/07/28 00:29:03;;;;;;;3.90;2.28;;;12.50;99.90;;;;;;5001886;28;20042;-58
2022/07/28 00:31:29;;;;;;;4.53;2.10;;;12.50;99.90;;;;;;4983950;28;20100;-58
2022/07/28 00:33:55;;;;;;;4.80;2.28;;;12.50;99.90;;;;;;5001832;28;20042;-58
2022/07/28 00:36:20;;;;;;;4.18;2.08;;;12.50;99.90;;;;;;5001621;28;20049;-57
2022/07/28 00:38:46;;;;;;;5.50;2.53;;;12.50;99.90;;;;;;5002056;28;20089;-58
2022/07/28 00:41:12;;;;;;;6.10;2.17;;;12.50;99.90;;;;;;4983577;28;20046;-57
2022/07/28 00:43:41;;;;;;;4.97;2.28;;;12.50;99.90;;;;;;5001408;28;20093;-59
2022/07/28 00:46:07;;;;;;;3.58;2.28;;;12.60;99.90;;;;;;4984401;28;20521;-58
2022/07/28 00:48:36;;;;;;;6.45;2.58;;;12.60;99.90;;;;;;5001320;28;20130;-58
2022/07/28 00:51:02;;;;;;;6.75;2.15;;;12.60;99.90;;;;;;5001958;28;20049;-57
2022/07/28 00:53:29;;;;;;;3.42;2.03;;;12.60;99.90;;;;;;5000505;28;20089;-58
2022/07/28 00:55:54;;;;;;;4.50;1.95;;;12.50;99.90;;;;;;5001149;28;20050;-58
2022/07/28 00:58:20;;;;;;;4.90;2.15;;;12.50;99.90;;;;;;5001159;28;20739;-58
2022/07/28 01:00:46;;;;;;;6.30;2.22;;;12.50;99.90;;;;;;5001515;28;20177;-58
2022/07/28 01:03:12;;;;;;;4.30;2.28;;;12.40;99.90;;;;;;5001095;28;20092;-58
2022/07/28 01:06:07;;;;;;;8.82;2.60;;;12.30;99.90;;;;;;5006154;22;20049;-58
2022/07/28 01:08:51;;;;;;;5.15;2.20;;;12.20;99.90;;;;;;4969303;28;20055;-58
2022/07/28 01:11:24;;;;;;;5.22;2.40;;;12.20;99.90;;;;;;4980674;28;20136;-56
2022/07/28 01:14:16;;;;;;;5.20;2.58;;;12.10;99.90;;;;;;4980976;28;20053;-58
2022/07/28 01:17:02;;;;;;;5.80;2.28;;;12.10;99.90;;;;;;4981916;28;20042;-56
2022/07/28 01:19:49;;;;;;;5.00;2.30;;;12.00;99.90;;;;;;4980970;28;20070;-59
2022/07/28 01:22:20;;;;;;;4.65;2.60;;;12.10;99.90;;;;;;4982041;28;20125;-57
2022/07/28 01:24:55;;;;;;;5.82;2.88;;;12.10;99.90;;;;;;4979020;28;20100;-58
2022/07/28 01:27:47;;;;;;;6.00;2.50;;;12.10;99.90;;;;;;4981042;28;20129;-59
2022/07/28 01:30:31;;;;;;;6.13;3.20;;;12.10;99.90;;;;;;4981491;28;20057;-57
2022/07/28 01:33:02;;;;;;;7.72;2.70;;;12.10;99.90;;;;;;4981609;28;20054;-58
2022/07/28 01:35:32;;;;;;;5.32;2.90;;;12.00;99.90;;;;;;4980574;28;20047;-58
2022/07/28 01:38:02;;;;;;;5.05;2.80;;;12.00;99.90;;;;;;4981447;28;20042;-57
2022/07/28 01:40:34;;;;;;;4.80;2.65;;;12.00;99.90;;;;;;4980237;28;20057;-58
2022/07/28 01:43:08;;;;;;;5.55;2.70;;;12.00;99.90;;;;;;4980804;28;20052;-58
2022/07/28 01:45:36;;;;;;;5.03;2.53;;;12.00;99.90;;;;;;4981161;28;20061;-57
2022/07/28 01:48:04;;;;;;;4.22;2.35;;;12.10;99.90;;;;;;4981062;28;20549;-59
2022/07/28 01:50:32;;;;;;;6.22;2.78;;;12.20;99.90;;;;;;4980265;28;20065;-58
2022/07/28 01:52:58;;;;;;;6.72;2.72;;;12.20;99.90;;;;;;4981091;28;20449;-57
2022/07/28 01:55:26;;;;;;;5.82;2.85;;;12.20;99.90;;;;;;4980109;28;20038;-58
2022/07/28 01:57:54;;;;;;;5.38;2.42;;;12.30;99.90;;;;;;4981212;28;20046;-58
2022/07/28 02:00:21;;;;;;;4.90;2.58;;;12.30;99.90;;;;;;4979723;28;20046;-58
2022/07/28 02:02:48;;;;;;;5.15;2.70;;;12.30;99.90;;;;;;4981525;28;20084;-58
2022/07/28 02:05:17;;;;;;;6.53;2.80;;;12.30;99.90;;;;;;4979864;28;20053;-58
2022/07/28 02:07:45;;;;;;;5.05;2.88;;;12.10;99.90;;;;;;4991703;28;20081;-57
2022/07/28 02:10:13;;;;;;;5.18;2.90;;;12.10;99.90;;;;;;4980407;28;20054;-58
2022/07/28 02:12:40;;;;;;;5.55;3.08;;;12.10;99.90;;;;;;4980380;28;20042;-58
2022/07/28 02:15:10;;;;;;;6.72;2.90;;;11.90;99.90;;;;;;4980666;28;20065;-58
2022/07/28 02:17:37;;;;;;;6.70;3.60;;;11.90;99.90;;;;;;4980168;28;20751;-58
2022/07/28 02:20:04;;;;;;;6.25;3.13;;;11.90;99.90;;;;;;4982140;28;20179;-57
2022/07/28 02:22:32;;;;;;;8.90;3.30;;;11.80;99.90;;;;;;4983198;28;20054;-58
2022/07/28 02:24:58;;;;;;;7.95;3.40;;;11.80;99.90;;;;;;4983875;28;20141;-58
2022/07/28 02:27:46;;;;;;;4.95;3.25;;;11.70;99.90;;;;;;4984885;28;20117;-58
2022/07/28 02:30:15;;;;;;;6.68;3.22;;;11.80;99.90;;;;;;4985540;28;20465;-56
2022/07/28 02:32:55;;;;;;;9.27;3.35;;;11.70;99.90;;;;;;4984755;28;20108;-58
2022/07/28 02:35:31;;;;;;;4.47;3.35;;;11.60;99.90;;;;;;4984328;28;20132;-58
2022/07/28 02:38:00;;;;;;;7.32;3.38;;;11.60;99.90;;;;;;4984057;28;20057;-59
2022/07/28 02:40:32;;;;;;;7.38;3.50;;;11.60;99.90;;;;;;4983607;28;20046;-58
2022/07/28 02:42:59;;;;;;;8.02;3.65;;;11.60;99.90;;;;;;4984319;28;20046;-58
2022/07/28 02:45:27;;;;;;;5.50;3.47;;;11.60;99.90;;;;;;4983365;28;20042;-59
2022/07/28 02:47:59;;;;;;;6.50;3.65;;;11.50;99.90;;;;;;4984555;28;20046;-57
2022/07/28 02:50:26;;;;;;;5.40;3.08;;;11.70;99.90;;;;;;4983802;28;20050;-57
2022/07/28 02:52:56;;;;;;;5.60;3.40;;;11.60;99.90;;;;;;4984271;28;20090;-57
2022/07/28 02:55:23;;;;;;;7.38;3.50;;;11.60;99.90;;;;;;4983013;28;20065;-58
2022/07/28 02:57:49;;;;;;;5.38;3.58;;;11.60;99.90;;;;;;4983513;28;20050;-58
2022/07/28 03:00:15;;;;;;;5.65;3.60;;;11.70;99.90;;;;;;4984623;28;20042;-57
2022/07/28 03:02:45;;;;;;;6.55;3.85;;;11.70;99.90;;;;;;4983794;28;20512;-58
2022/07/28 03:05:15;;;;;;;6.57;3.60;;;11.70;99.90;;;;;;4984103;28;20385;-57
2022/07/28 03:07:41;;;;;;;6.57;4.00;;;11.70;99.90;;;;;;4995044;28;20061;-58
2022/07/28 03:10:15;;;;;;;6.20;3.58;;;11.60;99.90;;;;;;4983406;28;20188;-58
2022/07/28 03:12:41;;;;;;;5.77;4.53;;;11.60;99.90;;;;;;4984347;28;20053;-58
2022/07/28 03:15:07;;;;;;;7.43;4.60;;;11.60;99.90;;;;;;4982653;28;20140;-58
2022/07/28 03:17:33;;;;;;;6.60;4.13;;;11.60;99.90;;;;;;4983540;28;20105;-57
2022/07/28 03:19:58;;;;;;;6.38;4.07;;;11.60;99.90;;;;;;4983200;28;20086;-57
2022/07/28 03:22:24;;;;;;;7.00;4.40;;;11.60;99.90;;;;;;4984024;28;20125;-58
2022/07/28 03:24:53;;;;;;;7.72;4.55;;;11.60;99.90;;;;;;4983258;28;20229;-58
2022/07/28 03:27:26;;;;;;;6.78;4.80;;;11.60;99.90;;;;;;4983459;28;20131;-58
2022/07/28 03:29:57;;;;;;;5.47;4.07;;;11.60;99.90;;;;;;4984231;28;20129;-57
2022/07/28 03:32:26;;;;;;;6.55;4.43;;;11.60;99.90;;;;;;4983107;28;20523;-57
2022/07/28 03:34:51;;;;;;;5.22;3.90;;;11.60;99.90;;;;;;4983752;28;20046;-57
2022/07/28 03:37:27;;;;;;;6.40;3.80;;;11.60;99.90;;;;;;4998032;28;20053;-56
2022/07/28 03:39:56;;;;;;;7.00;3.97;;;11.70;99.90;;;;;;4982862;28;20181;-58
2022/07/28 03:42:24;;;;;;;7.65;4.10;;;11.80;99.90;;;;;;4982917;28;20425;-58
2022/07/28 03:44:51;;;;;;;6.57;4.18;;;11.90;99.90;;;;;;4982771;28;20401;-59
2022/07/28 03:47:23;;;;;;;6.75;4.57;;;11.90;99.90;;;;;;4982711;28;20043;-56
2022/07/28 03:49:49;;;;;;;7.25;4.30;;;11.90;99.90;;;;;;4983378;28;20039;-58
2022/07/28 03:52:16;;;;;;;6.68;4.35;;;11.80;99.90;;;;;;4982889;28;20182;-58
2022/07/28 03:54:41;;;;;;;7.28;4.78;;;11.90;99.90;;;;;;4982720;28;20082;-54
2022/07/28 03:57:07;;;;;;;7.05;4.40;;;11.80;99.90;;;;;;4982831;28;20132;-57
2022/07/28 03:59:33;;;;;;;9.50;4.28;;;11.90;99.90;;;;;;4982876;28;20133;-58
2022/07/28 04:01:59;;;;;;;6.35;4.07;;;11.90;99.90;;;;;;4981425;28;20138;-58
2022/07/28 04:04:24;;;;;;;7.25;4.32;;;11.90;99.90;;;;;;4982829;28;20505;-57
2022/07/28 04:06:50;;;;;;;8.57;4.22;;;11.90;99.90;;;;;;4987783;28;20054;-58
2022/07/28 04:09:16;;;;;;;9.27;5.10;;;12.00;99.90;;;;;;4987755;28;20101;-59
2022/07/28 04:11:42;;;;;;;7.25;4.50;;;12.00;99.90;;;;;;4982806;28;20054;-57
2022/07/28 04:14:08;;;;;;;8.02;4.35;;;12.00;99.90;;;;;;4983120;28;20089;-58
2022/07/28 04:16:34;;;;;;;7.55;4.40;;;12.00;99.90;;;;;;4982650;28;20077;-58
2022/07/28 04:19:00;;;;;;;6.43;4.15;;;12.20;99.90;;;;;;4982754;28;20039;-57
2022/07/28 04:21:25;;;;;;;8.77;4.70;;;12.10;99.90;;;;;;4981660;28;20050;-57
2022/07/28 04:23:51;;;;;;;7.15;4.35;;;12.10;99.90;;;;;;4982752;28;20137;-58
2022/07/28 04:26:18;;;;;;;5.70;4.35;;;12.10;99.90;;;;;;4981296;28;20038;-57
2022/07/28 04:28:45;;;;;;;7.68;4.88;;;12.10;99.90;;;;;;4982946;28;20055;-57
2022/07/28 04:31:11;;;;;;;6.82;4.60;;;12.10;99.90;;;;;;4982649;28;20408;-58
2022/07/28 04:33:37;;;;;;;8.27;4.65;;;12.10;99.90;;;;;;4982530;28;20056;-58
2022/07/28 04:36:03;;;;;;;6.32;4.32;;;12.10;99.90;;;;;;4982420;28;20042;-57
2022/07/28 04:38:29;;;;;;;7.10;4.88;;;12.10;99.90;;;;;;4981959;28;20448;-57
2022/07/28 04:40:54;;;;;;;7.45;4.45;;;12.20;99.90;;;;;;4981492;28;20049;-58
2022/07/28 04:43:20;;;;;;;8.73;4.60;;;12.20;99.90;;;;;;4981439;28;20053;-57
2022/07/28 04:45:46;;;;;;;6.90;4.45;;;12.20;99.90;;;;;;4982259;28;20043;-58
2022/07/28 04:48:13;;;;;;;7.32;4.65;;;12.20;99.90;;;;;;4981647;28;20057;-59
2022/07/28 04:50:43;;;;;;;7.43;4.50;;;12.30;99.90;;;;;;4982248;28;20038;-58
2022/07/28 04:53:09;;;;;;;9.15;4.60;;;12.30;99.90;;;;;;4981825;28;20046;-58
2022/07/28 04:55:37;;;;;;;8.38;4.82;;;12.40;99.90;;;;;;4979776;28;20073;-57
2022/07/28 04:58:06;;;;;;;7.85;4.28;;;12.50;99.90;;;;;;4981669;28;20047;-57
2022/07/28 05:00:33;;;;;;;5.68;3.95;;;12.60;99.90;;;;;;4981934;28;20480;-58
2022/07/28 05:03:01;;;;;;;8.70;4.40;;;12.60;99.90;;;;;;4982303;28;20469;-57
2022/07/28 05:05:27;;;;;;;8.10;4.00;;;12.70;99.90;;;;;;4980587;28;20117;-58
2022/07/28 05:07:53;;;;;;;5.22;3.97;;;12.90;99.90;;;;;;4989332;28;20056;-58
2022/07/28 05:10:19;;;;;;;9.52;4.78;;;12.90;99.90;;;;;;4999898;28;20124;-59
2022/07/28 05:12:46;;;;;;;7.78;4.45;;;12.90;99.90;;;;;;5001697;28;20045;-57
2022/07/28 05:15:12;;;;;;;7.82;4.60;;;12.50;99.90;;;;;;5001077;28;20120;-57
2022/07/28 05:17:38;;;;;;;6.60;4.53;;;12.80;99.90;;;;;;5001436;28;20117;-58
2022/07/28 05:20:07;;;;;;;10.63;4.30;;;12.80;99.90;;;;;;5001108;28;20077;-58
2022/07/28 05:22:44;;;;;;;7.93;4.43;;;12.90;99.90;;;;;;5000627;28;20088;-57
2022/07/28 05:25:18;;;;;;;6.43;4.53;;;12.80;99.90;;;;;;5000682;28;20408;-57
2022/07/28 05:27:45;;;;;;;6.43;4.65;;;12.70;99.90;;;;;;5001373;28;20045;-58
2022/07/28 05:30:12;;;;;;;7.25;4.70;;;12.70;99.90;;;;;;5001581;28;20049;-59
2022/07/28 05:32:37;;;;;;;6.30;4.43;;;12.70;99.90;;;;;;5000318;28;20057;-58
2022/07/28 05:35:04;;;;;;;6.20;4.45;;;12.70;99.90;;;;;;5000732;28;20046;-57
2022/07/28 05:37:32;;;;;;;6.90;4.35;;;12.80;99.90;;;;;;5000219;28;20119;-57
2022/07/28 05:39:58;;;;;;;5.60;4.28;;;12.80;99.90;;;;;;4999708;28;20135;-58
2022/07/28 05:42:25;;;;;;;8.43;4.40;;;12.80;99.90;;;;;;5000450;28;20092;-58
2022/07/28 05:44:51;;;;;;;6.03;4.03;;;12.90;99.90;;;;;;5001172;28;20403;-58
2022/07/28 05:47:16;;;;;;;5.80;4.00;;;13.00;99.90;;;;;;4998843;28;20052;-58
2022/07/28 05:49:42;;;;;;;6.00;3.67;;;13.10;99.90;;;;;;5000552;28;20388;-58
2022/07/28 05:52:07;;;;;;;8.73;3.72;;;13.20;99.90;;;;;;5000708;28;20045;-57
2022/07/28 05:54:33;;;;;;;7.53;4.05;;;13.20;99.90;;;;;;4999868;28;20140;-58
2022/07/28 05:56:59;;;;;;;5.35;3.80;;;13.30;99.90;;;;;;5000559;28;20038;-58
2022/07/28 05:59:24;;;;;;;7.10;3.40;;;13.40;99.90;;;;;;4999630;28;20053;-58
2022/07/28 06:01:50;;;;;;;7.45;2.90;;;13.50;99.90;;;;;;5000823;28;20100;-57
2022/07/28 06:04:15;;;;;;;6.05;2.72;;;13.80;99.90;;;;;;4998884;28;20053;-58
2022/07/28 06:06:41;;;;;;;6.82;2.38;;;14.00;99.90;;;;;;4997437;28;20093;-58
2022/07/28 06:09:07;;;;;;;5.80;2.35;;;14.00;99.90;;;;;;4992035;28;20092;-59
2022/07/28 06:11:32;;;;;;;6.03;2.58;;;14.00;99.90;;;;;;5000119;28;20493;-58
2022/07/28 06:13:58;;;;;;;7.68;2.45;;;14.00;99.90;;;;;;5000456;28;20458;-57
2022/07/28 06:16:23;;;;;;;6.38;2.30;;;14.10;99.90;;;;;;4998973;28;20046;-57
2022/07/28 06:18:50;;;;;;;4.72;2.20;;;14.20;99.90;;;;;;4999679;28;20046;-58
2022/07/28 06:21:15;;;;;;;4.35;2.28;;;14.10;99.90;;;;;;4998982;28;20081;-59
2022/07/28 06:23:41;;;;;;;7.45;2.38;;;14.10;99.90;;;;;;5001034;28;20582;-58
2022/07/28 06:26:07;;;;;;;5.32;2.40;;;14.20;99.90;;;;;;4999698;28;20049;-58
2022/07/28 06:28:32;;;;;;;5.45;2.35;;;14.30;99.90;;;;;;4999325;28;20352;-58
2022/07/28 06:30:58;;;;;;;6.50;2.60;;;14.30;99.90;;;;;;5000419;28;20512;-57
2022/07/28 06:33:24;;;;;;;6.88;2.40;;;14.40;99.90;;;;;;4999963;28;20046;-58
2022/07/28 06:35:49;;;;;;;6.60;2.25;;;14.50;99.90;;;;;;5000009;28;20041;-58
2022/07/28 06:38:15;;;;;;;6.13;2.40;;;14.60;99.90;;;;;;5000186;28;20121;-57
2022/07/28 06:40:42;;;;;;;5.32;2.20;;;14.60;99.90;;;;;;4999765;28;20126;-58
2022/07/28 06:43:07;;;;;;;5.82;2.15;;;14.70;99.90;;;;;;5000596;28;20057;-57
2022/07/28 06:45:33;;;;;;;5.63;2.20;;;14.80;99.90;;;;;;4999818;28;20046;-58
2022/07/28 06:47:59;;;;;;;5.47;2.08;;;14.90;99.90;;;;;;4999572;28;20594;-58
2022/07/28 06:50:24;;;;;;;7.03;2.30;;;14.90;99.90;;;;;;5000099;28;20053;-57
2022/07/28 06:52:50;;;;;;;8.35;2.95;;;15.00;99.90;;;;;;5000373;28;20054;-58
2022/07/28 06:55:16;;;;;;;6.57;3.10;;;15.10;99.90;;;;;;4999296;28;20400;-57
2022/07/28 06:57:42;;;;;;;10.90;3.53;;;15.40;99.90;;;;;;4999825;28;20104;-54
2022/07/28 07:00:11;;;;;;;5.65;3.25;;;15.50;99.90;;;;;;4999961;28;20046;-58
2022/07/28 07:02:38;;;;;;;7.63;3.28;;;15.60;99.90;;;;;;4999915;28;20123;-57
2022/07/28 07:05:05;;;;;;;7.03;3.42;;;15.70;99.90;;;;;;4999435;28;20042;-58
2022/07/28 07:07:30;;;;;;;7.35;3.55;;;15.80;99.90;;;;;;4997163;28;21309;-58
2022/07/28 07:09:56;;;;;;;8.32;2.85;;;15.80;99.90;;;;;;4982434;28;20112;-57
2022/07/28 07:12:22;;;;;;;5.03;2.20;;;15.90;99.90;;;;;;4983154;28;20043;-58
2022/07/28 07:14:48;;;;;;;11.57;2.50;;;16.00;99.90;;;;;;4983362;28;20042;-58
2022/07/28 07:17:13;;;;;;;6.72;2.00;;;16.00;99.90;;;;;;4984034;28;20050;-58
2022/07/28 07:19:39;;;;;;;6.20;2.00;;;16.00;99.90;;;;;;4983734;28;20053;-58
2022/07/28 07:22:04;;;;;;;6.00;2.10;;;16.10;99.90;;;;;;4983786;28;20061;-58
2022/07/28 07:24:30;;;;;;;9.05;2.00;;;16.20;99.90;;;;;;4981954;28;20073;-58
2022/07/28 07:26:56;;;;;;;5.43;2.10;;;16.30;99.90;;;;;;4983726;28;20485;-57
2022/07/28 07:29:22;;;;;;;5.35;2.05;;;16.30;99.90;;;;;;4983044;28;20438;-59
2022/07/28 07:31:48;;;;;;;8.55;2.17;;;16.40;99.90;;;;;;4983583;28;20058;-57
2022/07/28 07:34:14;;;;;;;6.38;2.10;;;16.60;99.90;;;;;;4983121;28;20046;-58
2022/07/28 07:36:40;;;;;;;7.88;2.15;;;16.70;99.90;;;;;;5009878;28;20053;-60
2022/07/28 07:39:06;;;;;;;3.10;1.52;;;16.70;99.90;;;;;;5022207;28;20060;-58
2022/07/28 07:41:32;;;;;;;7.18;1.60;;;16.80;99.90;;;;;;5022343;28;20516;-58
2022/07/28 07:43:57;;;;;;;5.07;1.35;;;16.70;99.90;;;;;;5022074;28;20038;-57
2022/07/28 07:46:23;;;;;;;3.35;1.33;;;16.80;99.90;;;;;;5022207;28;20049;-57
2022/07/28 07:48:49;;;;;;;3.45;1.10;;;17.10;99.90;;;;;;5022769;28;20046;-57
2022/07/28 07:51:14;;;;;;;5.53;1.20;;;17.30;99.90;;;;;;5022407;28;20041;-56
2022/07/28 07:53:40;;;;;;;4.78;1.38;;;17.40;99.90;;;;;;5021316;28;20053;-57
2022/07/28 07:56:05;;;;;;;7.45;1.65;;;17.60;99.90;;;;;;5018156;28;20391;-57
2022/07/28 07:58:31;;;;;;;5.20;1.35;;;17.70;99.90;;;;;;5021998;28;20753;-56
2022/07/28 08:00:57;;;;;;;6.15;1.40;;;17.80;99.90;;;;;;5020997;28;20053;-57
2022/07/28 08:03:23;;;;;;;14.85;2.15;;;17.80;99.90;;;;;;5021372;28;20432;-57
2022/07/28 08:05:48;;;;;;;5.53;1.42;;;17.80;99.90;;;;;;5016417;28;20054;-57
2022/07/28 08:08:14;;;;;;;7.53;1.30;;;17.90;99.90;;;;;;4993323;28;20046;-58
2022/07/28 08:10:40;;;;;;;5.40;1.38;;;18.10;99.90;;;;;;4981946;28;20050;-58
2022/07/28 08:13:06;;;;;;;5.28;1.23;;;18.30;99.90;;;;;;4982249;28;20142;-56
2022/07/28 08:15:32;;;;;;;6.25;1.30;;;18.60;99.90;;;;;;4982441;28;20046;-56
2022/07/28 08:17:59;;;;;;;5.53;1.52;;;18.90;99.90;;;;;;4981942;28;20065;-56
2022/07/28 08:20:25;;;;;;;3.80;1.15;;;18.70;99.90;;;;;;4982719;28;20053;-57
2022/07/28 08:22:54;;;;;;;5.05;1.20;;;18.90;99.90;;;;;;4982572;28;20618;-57
2022/07/28 08:25:20;;;;;;;4.10;1.20;;;19.30;99.90;;;;;;4981483;28;20113;-57
2022/07/28 08:27:46;;;;;;;5.20;1.15;;;19.30;99.90;;;;;;4982866;28;20137;-58
2022/07/28 08:30:18;;;;;;;3.38;1.15;;;19.20;99.90;;;;;;4982763;28;20035;-58
2022/07/28 08:32:43;;;;;;;6.65;1.15;;;19.10;99.90;;;;;;4982985;28;20043;-57
2022/07/28 08:35:09;;;;;;;7.32;1.65;;;19.20;99.90;;;;;;4982609;28;20052;-57
2022/07/28 08:37:38;;;;;;;6.43;1.50;;;19.20;99.90;;;;;;4982355;28;20081;-57
2022/07/28 08:40:05;;;;;;;3.40;1.60;;;19.10;99.90;;;;;;4981418;28;20112;-57
2022/07/28 08:42:42;;;;;;;5.20;1.70;;;19.30;99.90;;;;;;4981817;28;20053;-58
2022/07/28 08:45:10;;;;;;;7.82;2.38;;;19.60;99.90;;;;;;4982564;28;20474;-58
2022/07/28 08:47:36;;;;;;;8.48;2.03;;;19.50;99.90;;;;;;4981591;28;20050;-57
2022/07/28 08:50:04;;;;;;;4.90;2.60;;;19.50;99.90;;;;;;4982290;28;20061;-57
2022/07/28 08:52:32;;;;;;;6.38;2.40;;;19.50;99.90;;;;;;4981724;28;20042;-57
2022/07/28 08:55:01;;;;;;;6.57;2.17;;;19.70;99.90;;;;;;4981863;28;20042;-58
2022/07/28 08:57:33;;;;;;;4.70;2.25;;;19.70;99.90;;;;;;4984220;28;20046;-59
2022/07/28 08:59:58;;;;;;;3.60;1.33;;;19.70;99.90;;;;;;5000250;28;20050;-57
2022/07/28 09:02:25;;;;;;;4.38;1.30;;;19.80;99.90;;;;;;5000437;28;20729;-56
2022/07/28 09:04:53;;;;;;;6.53;1.40;;;19.80;99.90;;;;;;5000882;28;20395;-57
2022/07/28 09:07:19;;;;;;;2.50;1.23;;;19.90;99.90;;;;;;4989841;28;20149;-57
2022/07/28 09:09:47;;;;;;;3.30;1.35;;;19.80;99.90;;;;;;4981110;28;20121;-58
2022/07/28 09:12:13;;;;;;;3.85;1.40;;;19.80;99.90;;;;;;4988121;28;20713;-57
2022/07/28 09:14:39;;;;;;;4.20;1.08;;;20.10;99.90;;;;;;5000094;28;20064;-57
2022/07/28 09:17:05;;;;;;;6.72;1.15;;;20.30;99.90;;;;;;5000932;28;20042;-57
2022/07/28 09:19:32;;;;;;;1.95;0.80;;;20.30;99.90;;;;;;5000949;28;20049;-58
2022/07/28 09:21:58;;;;;;;3.08;0.98;;;20.20;99.90;;;;;;5000297;28;20505;-57
2022/07/28 09:24:39;;;;;;;2.25;0.90;;;20.30;99.90;;;;;;4999825;28;20405;-58
2022/07/28 09:27:07;;;;;;;2.75;0.90;;;20.50;99.90;;;;;;5001433;28;20617;-56
2022/07/28 09:29:34;;;;;;;3.38;0.95;;;20.30;99.90;;;;;;5000726;28;20053;-57
2022/07/28 09:32:00;;;;;;;2.53;0.80;;;20.40;99.90;;;;;;5000397;28;20049;-57
2022/07/28 09:34:26;;;;;;;3.78;1.02;;;20.30;99.90;;;;;;5000956;28;20041;-57
2022/07/28 09:36:52;;;;;;;3.97;0.80;;;20.10;99.90;;;;;;5001139;28;20036;-57
2022/07/28 09:39:31;;;;;;;2.50;1.00;;;19.90;99.90;;;;;;4999842;28;20046;-57
2022/07/28 09:41:57;;;;;;;3.38;0.80;;;20.10;99.90;;;;;;4999791;28;20148;-57
2022/07/28 09:44:25;;;;;;;4.35;0.90;;;20.30;99.90;;;;;;5000571;28;20033;-57
2022/07/28 09:46:51;;;;;;;3.95;1.23;;;20.30;99.90;;;;;;5001051;28;20077;-56
2022/07/28 09:49:17;;;;;;;4.70;0.80;;;20.70;99.90;;;;;;5000369;28;20199;-57
2022/07/28 09:52:02;;;;;;;1.60;0.60;;;20.70;99.90;;;;;;5001332;28;20539;-52
2022/07/28 09:54:28;;;;;;;4.63;0.88;;;20.40;99.90;;;;;;4999080;28;20050;-56
2022/07/28 09:56:54;;;;;;;4.55;0.90;;;20.50;99.90;;;;;;5000398;28;20484;-57
2022/07/28 09:59:20;;;;;;;4.38;1.77;;;20.40;99.90;;;;;;4999487;28;20108;-56
2022/07/28 10:01:51;;;;;;;3.63;1.00;;;20.60;99.90;;;;;;5000950;28;20455;-57
2022/07/28 10:04:34;;;;;;;4.22;1.00;;;20.90;99.90;;;;;;4999737;28;20160;-57
2022/07/28 10:07:10;;;;;;;3.58;1.20;;;20.20;99.90;;;;;;4993575;28;20054;-56
2022/07/28 10:09:37;;;;;;;1.98;0.60;;;20.50;99.90;;;;;;4983112;28;20490;-56
2022/07/28 10:12:23;;;;;;;4.68;1.00;;;20.50;99.90;;;;;;4980614;28;20082;-57
2022/07/28 10:14:52;;;;;;;8.35;1.05;;;20.70;99.90;;;;;;4979676;28;20078;-57
2022/07/28 10:17:21;;;;;;;1.77;0.73;;;20.70;99.90;;;;;;4980434;28;20117;-56
2022/07/28 10:19:47;;;;;;;3.20;1.23;;;20.70;99.90;;;;;;4981325;28;20081;-57
2022/07/28 10:22:16;;;;;;;3.47;0.80;;;20.70;99.90;;;;;;4981081;28;20082;-57
2022/07/28 10:24:45;;;;;;;3.75;0.85;;;20.70;99.90;;;;;;4979828;28;20049;-58
2022/07/28 10:27:11;;;;;;;3.78;0.90;;;20.80;99.90;;;;;;4981230;28;20069;-56
2022/07/28 10:29:38;;;;;;;1.73;0.82;;;20.80;99.90;;;;;;4980659;28;20051;-57
2022/07/28 10:32:05;;;;;;;2.50;0.80;;;20.80;99.90;;;;;;4980642;28;20060;-57
2022/07/28 10:34:45;;;;;;;2.40;0.82;;;20.50;99.90;;;;;;4995497;28;20325;-55
2022/07/28 10:37:17;;;;;;;3.20;0.77;;;20.50;99.90;;;;;;4981115;28;20139;-56
2022/07/28 10:39:50;;;;;;;4.10;1.00;;;20.50;99.90;;;;;;4980140;28;20047;-56
2022/07/28 10:42:18;;;;;;;3.25;1.00;;;20.60;99.90;;;;;;4983315;28;20058;-58
2022/07/28 10:44:45;;;;;;;2.30;0.90;;;20.40;99.90;;;;;;4985007;28;20370;-56
2022/07/28 10:47:11;;;;;;;3.05;0.93;;;20.20;99.90;;;;;;4999175;28;20038;-57
2022/07/28 10:49:38;;;;;;;2.83;0.80;;;20.10;99.90;;;;;;4984098;28;20105;-56
2022/07/28 10:52:05;;;;;;;1.83;0.70;;;20.10;99.90;;;;;;4984329;28;20046;-56
2022/07/28 10:54:37;;;;;;;2.83;0.88;;;20.00;99.90;;;;;;4983386;28;20155;-57
2022/07/28 10:57:06;;;;;;;2.20;0.73;;;20.20;99.90;;;;;;4983785;28;20038;-57
2022/07/28 10:59:50;;;;;;;3.60;0.82;;;20.30;99.90;;;;;;4984070;28;20519;-56
2022/07/28 11:02:46;;;;;;;1.67;0.82;;;20.50;99.90;;;;;;4983194;28;20144;-59
2022/07/28 11:05:35;;;;;;;2.05;0.82;;;20.50;99.90;;;;;;4982085;28;20058;-56
2022/07/28 11:08:05;;;;;;;2.15;0.73;;;20.80;99.90;;;;;;4991633;28;20092;-57
2022/07/28 11:10:43;;;;;;;1.83;0.70;;;21.00;99.90;;;;;;5003160;28;20041;-57
2022/07/28 11:13:23;;;;;;;4.13;0.88;;;20.90;99.90;;;;;;5002851;28;20042;-57
2022/07/28 11:15:49;;;;;;;1.20;0.70;;;21.00;99.90;;;;;;5003817;28;20443;-56
2022/07/28 11:18:15;;;;;;;3.40;0.95;;;21.10;99.90;;;;;;5003655;28;20054;-56
2022/07/28 11:20:55;;;;;;;1.52;0.70;;;21.20;99.90;;;;;;5003314;28;20116;-57
2022/07/28 11:23:45;;;;;;;2.25;0.80;;;21.30;99.90;;;;;;5001999;28;20092;-57
2022/07/28 11:26:20;;;;;;;2.40;0.60;;;21.30;99.90;;;;;;5003603;28;20486;-57
2022/07/28 11:29:04;;;;;;;2.25;0.88;;;21.10;99.90;;;;;;5003595;28;20053;-57
2022/07/28 11:31:45;;;;;;;1.83;0.88;;;21.20;99.90;;;;;;5002348;28;20719;-57
2022/07/28 11:34:17;;;;;;;2.38;1.00;;;21.50;99.90;;;;;;5003486;28;20112;-57
2022/07/28 11:37:08;;;;;;;1.83;0.82;;;21.30;99.90;;;;;;5003162;28;20149;-56
2022/07/28 11:39:38;;;;;;;3.15;1.08;;;21.40;99.90;;;;;;5002020;28;20268;-56
2022/07/28 11:42:27;;;;;;;3.85;1.00;;;21.10;99.90;;;;;;5000791;28;20049;-57
2022/07/28 11:44:54;;;;;;;2.85;0.90;;;21.00;99.90;;;;;;5003227;28;20045;-56
2022/07/28 11:47:21;;;;;;;2.78;0.85;;;21.00;99.90;;;;;;5002655;28;20434;-57
2022/07/28 11:50:12;;;;;;;2.65;1.25;;;21.10;99.90;;;;;;5002503;28;20045;-58
2022/07/28 11:52:39;;;;;;;3.65;0.82;;;21.10;99.90;;;;;;5002624;28;20081;-57
2022/07/28 11:55:05;;;;;;;1.52;0.80;;;21.10;99.90;;;;;;5001676;28;20057;-57
2022/07/28 11:57:39;;;;;;;3.72;1.00;;;21.30;99.90;;;;;;5002592;28;20045;-57
2022/07/28 12:00:05;;;;;;;1.98;0.82;;;21.40;99.90;;;;;;5002591;28;20520;-56
2022/07/28 12:02:33;;;;;;;2.15;0.90;;;21.60;99.90;;;;;;5001709;28;20061;-57
2022/07/28 12:05:09;;;;;;;3.00;1.00;;;21.60;99.90;;;;;;5002318;28;20049;-57
2022/07/28 12:07:43;;;;;;;2.65;0.80;;;21.50;99.90;;;;;;4995555;28;20058;-57
2022/07/28 12:10:43;;;;;;;3.72;0.90;;;21.30;99.90;;;;;;4981360;28;20136;-57
2022/07/28 12:13:08;;;;;;;2.10;0.90;;;21.30;99.90;;;;;;4982459;28;20042;-57
2022/07/28 12:15:34;;;;;;;2.55;0.80;;;21.40;99.90;;;;;;4981956;28;20520;-57
2022/07/28 12:18:00;;;;;;;2.83;0.98;;;21.60;99.90;;;;;;4983073;28;20041;-56
2022/07/28 12:20:30;;;;;;;3.08;0.70;;;21.70;99.90;;;;;;4982963;28;20426;-57
2022/07/28 12:22:57;;;;;;;2.25;0.70;;;22.00;99.90;;;;;;4981395;28;20100;-57
2022/07/28 12:25:23;;;;;;;2.00;0.80;;;22.30;99.90;;;;;;4982279;28;20057;-57
2022/07/28 12:27:49;;;;;;;2.35;0.70;;;22.50;99.90;;;;;;4982657;28;20043;-58
2022/07/28 12:30:27;;;;;;;2.58;0.80;;;22.40;99.90;;;;;;4981349;28;20073;-58
2022/07/28 12:32:53;;;;;;;2.00;0.73;;;22.50;99.90;;;;;;4982481;28;20077;-56
2022/07/28 12:35:21;;;;;;;2.40;0.80;;;22.60;99.90;;;;;;4980632;28;20053;-57
2022/07/28 12:37:48;;;;;;;1.10;0.60;;;22.80;99.90;;;;;;4982582;28;20058;-58
2022/07/28 12:40:16;;;;;;;3.50;0.80;;;22.30;99.90;;;;;;4981716;28;20579;-57
2022/07/28 12:42:42;;;;;;;1.98;0.65;;;22.50;99.90;;;;;;4982297;28;20058;-58
2022/07/28 12:45:09;;;;;;;2.45;0.77;;;22.20;99.90;;;;;;4982379;28;20054;-57
2022/07/28 12:47:35;;;;;;;5.85;0.88;;;22.20;99.90;;;;;;4982280;28;20050;-57
2022/07/28 12:50:09;;;;;;;3.78;0.90;;;22.10;99.90;;;;;;4981616;28;20057;-57
2022/07/28 12:52:35;;;;;;;2.25;0.60;;;22.00;99.90;;;;;;4981753;28;20046;-57
2022/07/28 12:55:01;;;;;;;1.30;0.55;;;22.10;99.90;;;;;;4981135;28;20125;-58